createdAt,value
2019-04-25T00:00:14.996Z,10.32
2019-04-25T00:01:14.823Z,10.22
2019-04-25T00:02:14.804Z,10.26
2019-04-25T00:03:14.649Z,10.22
2019-04-25T00:04:14.564Z,10.24
2019-04-25T00:05:14.527Z,10.34
2019-04-25T00:06:14.414Z,10.22
2019-04-25T00:07:14.309Z,10.18
2019-04-25T00:08:14.336Z,10.24
2019-04-25T00:09:14.148Z,10.28
2019-04-25T00:10:14.062Z,10.25
2019-04-25T00:11:16.020Z,10.24
2019-04-25T00:12:13.894Z,10.26
2019-04-25T00:13:13.809Z,10.26
2019-04-25T00:14:13.759Z,10.25
2019-04-25T00:15:13.645Z,10.25
2019-04-25T00:16:13.572Z,10.31
2019-04-25T00:17:13.574Z,10.24
2019-04-25T00:18:13.391Z,10.24
2019-04-25T00:19:13.304Z,10.20
2019-04-25T00:20:13.287Z,10.16
2019-04-25T00:21:13.153Z,10.25
2019-04-25T00:22:13.058Z,10.17
2019-04-25T00:23:13.003Z,10.14
2019-04-25T00:24:12.892Z,10.09
2019-04-25T00:25:15.876Z,10.10
2019-04-25T00:26:12.846Z,10.04
2019-04-25T00:27:12.645Z,9.96
2019-04-25T00:28:12.561Z,9.96
2019-04-25T00:29:13.193Z,10.06
2019-04-25T00:30:12.393Z,9.99
2019-04-25T00:31:12.371Z,10.02
2019-04-25T00:32:12.224Z,10.04
2019-04-25T00:33:12.255Z,10.01
2019-04-25T00:34:12.153Z,10.07
2019-04-25T00:35:14.005Z,9.96
2019-04-25T00:36:12.094Z,9.95
2019-04-25T00:37:13.747Z,9.98
2019-04-25T00:38:12.211Z,9.98
2019-04-25T00:39:11.930Z,10.01
2019-04-25T00:40:11.902Z,9.93
2019-04-25T00:41:11.641Z,10.04
2019-04-25T00:42:12.220Z,9.96
2019-04-25T00:43:11.473Z,9.99
2019-04-25T00:44:12.091Z,9.91
2019-04-25T00:45:11.913Z,9.92
2019-04-25T00:46:14.523Z,9.81
2019-04-25T00:47:11.775Z,9.83
2019-04-25T00:48:12.237Z,9.80
2019-04-25T00:49:12.249Z,9.83
2019-04-25T00:50:11.991Z,9.86
2019-04-25T00:51:11.797Z,9.83
2019-04-25T00:52:11.630Z,9.71
2019-04-25T00:53:12.490Z,9.75
2019-04-25T00:54:11.871Z,9.75
2019-04-25T00:55:11.614Z,9.71
2019-04-25T00:56:11.259Z,9.74
2019-04-25T00:57:10.161Z,9.56
2019-04-25T00:58:11.484Z,9.70
2019-04-25T00:59:11.859Z,9.60
2019-04-25T01:00:11.554Z,9.56
2019-04-25T01:01:09.919Z,9.62
2019-04-25T01:02:11.374Z,9.65
2019-04-25T01:03:09.692Z,9.68
2019-04-25T01:04:09.555Z,9.62
2019-04-25T01:05:09.471Z,9.59
2019-04-25T01:06:09.401Z,9.59
2019-04-25T01:07:09.414Z,9.62
2019-04-25T01:08:09.221Z,9.62
2019-04-25T01:09:09.137Z,9.63
2019-04-25T01:10:09.054Z,9.65
2019-04-25T01:11:09.072Z,9.60
2019-04-25T01:12:08.891Z,9.63
2019-04-25T01:13:08.840Z,9.59
2019-04-25T01:14:08.721Z,9.59
2019-04-25T01:15:08.753Z,9.63
2019-04-25T01:16:08.565Z,9.59
2019-04-25T01:17:08.560Z,9.65
2019-04-25T01:18:08.393Z,9.59
2019-04-25T01:19:08.303Z,9.55
2019-04-25T01:20:08.276Z,9.58
2019-04-25T01:21:08.147Z,9.58
2019-04-25T01:22:08.052Z,9.55
2019-04-25T01:23:07.988Z,9.49
2019-04-25T01:24:07.881Z,9.58
2019-04-25T01:25:07.798Z,9.50
2019-04-25T01:26:07.837Z,9.53
2019-04-25T01:27:07.646Z,9.49
2019-04-25T01:28:07.550Z,9.52
2019-04-25T01:29:08.555Z,9.45
2019-04-25T01:30:07.382Z,9.42
2019-04-25T01:31:07.329Z,9.42
2019-04-25T01:32:07.275Z,9.44
2019-04-25T01:33:07.388Z,9.49
2019-04-25T01:34:07.364Z,9.44
2019-04-25T01:35:07.134Z,9.59
2019-04-25T01:36:06.882Z,9.55
2019-04-25T01:37:06.889Z,9.49
2019-04-25T01:38:06.715Z,9.52
2019-04-25T01:39:06.664Z,9.48
2019-04-25T01:40:06.547Z,9.44
2019-04-25T01:41:07.624Z,9.37
2019-04-25T01:42:06.398Z,9.42
2019-04-25T01:43:06.296Z,9.42
2019-04-25T01:44:06.286Z,9.44
2019-04-25T01:45:06.125Z,9.48
2019-04-25T01:46:06.044Z,9.50
2019-04-25T01:47:06.036Z,9.44
2019-04-25T01:48:05.885Z,9.45
2019-04-25T01:49:05.791Z,9.48
2019-04-25T01:50:05.820Z,9.49
2019-04-25T01:51:05.627Z,9.49
2019-04-25T01:52:05.562Z,9.55
2019-04-25T01:53:05.532Z,9.45
2019-04-25T01:54:05.376Z,9.48
2019-04-25T01:55:05.557Z,9.53
2019-04-25T01:56:07.779Z,9.48
2019-04-25T01:57:05.184Z,9.50
2019-04-25T01:58:05.040Z,9.48
2019-04-25T01:59:04.956Z,9.49
2019-04-25T02:00:04.969Z,9.58
2019-04-25T02:01:04.796Z,9.62
2019-04-25T02:02:06.726Z,9.58
2019-04-25T02:03:04.684Z,9.62
2019-04-25T02:04:04.539Z,9.59
2019-04-25T02:05:05.134Z,9.55
2019-04-25T02:06:05.076Z,9.53
2019-04-25T02:07:04.455Z,9.65
2019-04-25T02:08:06.951Z,9.58
2019-04-25T02:09:05.211Z,9.59
2019-04-25T02:10:04.047Z,9.59
2019-04-25T02:11:04.741Z,9.55
2019-04-25T02:12:04.875Z,9.67
2019-04-25T02:13:03.908Z,9.74
2019-04-25T02:14:05.081Z,9.67
2019-04-25T02:15:05.887Z,9.70
2019-04-25T02:16:05.231Z,9.70
2019-04-25T02:17:04.524Z,9.70
2019-04-25T02:18:03.811Z,9.71
2019-04-25T02:19:03.994Z,9.65
2019-04-25T02:20:04.205Z,9.73
2019-04-25T02:21:04.486Z,9.70
2019-04-25T02:22:04.032Z,9.68
2019-04-25T02:23:04.181Z,9.70
2019-04-25T02:24:04.379Z,9.74
2019-04-25T02:25:04.444Z,9.80
2019-04-25T02:26:12.112Z,9.65
2019-04-25T02:27:04.579Z,9.80
2019-04-25T02:28:05.539Z,9.81
2019-04-25T02:29:04.465Z,9.60
2019-04-25T02:30:04.371Z,9.70
2019-04-25T02:31:05.603Z,9.73
2019-04-25T02:32:05.116Z,9.74
2019-04-25T02:33:06.778Z,9.71
2019-04-25T02:34:03.659Z,9.73
2019-04-25T02:35:07.895Z,9.73
2019-04-25T02:36:04.049Z,9.70
2019-04-25T02:37:05.602Z,9.75
2019-04-25T02:38:04.579Z,9.74
2019-04-25T02:39:04.614Z,9.73
2019-04-25T02:40:03.896Z,9.77
2019-04-25T02:41:03.221Z,9.73
2019-04-25T02:42:04.033Z,9.75
2019-04-25T02:43:03.164Z,9.68
2019-04-25T02:44:06.008Z,9.71
2019-04-25T02:45:02.401Z,9.77
2019-04-25T02:46:02.218Z,9.71
2019-04-25T02:47:02.217Z,9.75
2019-04-25T02:48:01.436Z,9.85
2019-04-25T02:49:02.855Z,9.86
2019-04-25T02:50:02.238Z,9.81
2019-04-25T02:51:01.249Z,9.95
2019-04-25T02:52:01.227Z,9.89
2019-04-25T02:53:01.331Z,9.98
2019-04-25T02:54:01.798Z,10.04
2019-04-25T02:55:00.758Z,9.98
2019-04-25T02:56:00.189Z,10.02
2019-04-25T02:57:00.142Z,10.04
2019-04-25T02:58:00.427Z,10.10
2019-04-25T02:59:00.317Z,10.09
2019-04-25T03:00:00.247Z,10.09
2019-04-25T03:01:12.403Z,10.02
2019-04-25T03:02:00.757Z,9.99
2019-04-25T03:03:00.899Z,10.06
2019-04-25T03:04:00.839Z,10.11
2019-04-25T03:05:00.099Z,10.06
2019-04-25T03:05:59.763Z,10.11
2019-04-25T03:07:00.680Z,10.20
2019-04-25T03:07:59.997Z,10.14
2019-04-25T03:09:00.298Z,10.18
2019-04-25T03:09:59.569Z,10.14
2019-04-25T03:10:59.790Z,10.09
2019-04-25T03:11:59.804Z,10.20
2019-04-25T03:13:00.035Z,10.14
2019-04-25T03:14:00.375Z,10.20
2019-04-25T03:15:00.030Z,10.26
2019-04-25T03:15:59.055Z,10.26
2019-04-25T03:16:59.179Z,10.29
2019-04-25T03:17:58.710Z,10.22
2019-04-25T03:18:59.441Z,10.20
2019-04-25T03:19:59.418Z,10.11
2019-04-25T03:20:59.196Z,10.16
2019-04-25T03:21:59.504Z,10.14
2019-04-25T03:22:59.370Z,10.22
2019-04-25T03:23:58.614Z,10.07
2019-04-25T03:24:59.662Z,10.04
2019-04-25T03:25:59.122Z,10.11
2019-04-25T03:26:58.574Z,9.99
2019-04-25T03:27:57.515Z,10.06
2019-04-25T03:28:57.497Z,10.01
2019-04-25T03:29:57.359Z,10.06
2019-04-25T03:30:57.368Z,10.10
2019-04-25T03:31:57.195Z,10.11
2019-04-25T03:32:57.113Z,10.11
2019-04-25T03:33:57.016Z,10.09
2019-04-25T03:34:56.944Z,10.16
2019-04-25T03:35:56.927Z,10.04
2019-04-25T03:36:56.757Z,10.14
2019-04-25T03:37:56.681Z,10.13
2019-04-25T03:38:56.641Z,10.17
2019-04-25T03:39:56.524Z,10.17
2019-04-25T03:40:56.427Z,10.11
2019-04-25T03:41:56.455Z,10.07
2019-04-25T03:42:56.262Z,10.09
2019-04-25T03:43:56.176Z,10.16
2019-04-25T03:44:56.203Z,10.10
2019-04-25T03:45:56.007Z,10.10
2019-04-25T03:46:55.987Z,10.09
2019-04-25T03:47:55.841Z,10.13
2019-04-25T03:48:55.789Z,10.13
2019-04-25T03:49:55.687Z,10.06
2019-04-25T03:50:55.700Z,10.04
2019-04-25T03:51:55.507Z,10.22
2019-04-25T03:52:55.510Z,10.16
2019-04-25T03:53:55.336Z,10.20
2019-04-25T03:54:56.848Z,10.26
2019-04-25T03:55:55.173Z,10.22
2019-04-25T03:56:56.206Z,10.25
2019-04-25T03:57:55.010Z,10.20
2019-04-25T03:58:54.934Z,10.25
2019-04-25T03:59:54.852Z,10.25
2019-04-25T04:00:54.847Z,10.26
2019-04-25T04:01:54.670Z,10.29
2019-04-25T04:02:55.378Z,10.24
2019-04-25T04:03:54.505Z,10.20
2019-04-25T04:04:54.448Z,10.22
2019-04-25T04:05:55.574Z,10.26
2019-04-25T04:06:54.252Z,10.26
2019-04-25T04:07:54.171Z,10.28
2019-04-25T04:08:54.183Z,10.24
2019-04-25T04:09:55.087Z,10.24
2019-04-25T04:10:54.426Z,10.17
2019-04-25T04:11:53.899Z,10.07
2019-04-25T04:12:54.246Z,10.18
2019-04-25T04:13:55.458Z,10.18
2019-04-25T04:14:53.860Z,10.14
2019-04-25T04:15:53.517Z,10.14
2019-04-25T04:16:53.906Z,10.20
2019-04-25T04:17:53.695Z,10.17
2019-04-25T04:18:54.103Z,10.16
2019-04-25T04:19:53.728Z,10.14
2019-04-25T04:20:56.565Z,10.20
2019-04-25T04:21:53.261Z,10.11
2019-04-25T04:22:53.292Z,10.09
2019-04-25T04:23:54.211Z,10.06
2019-04-25T04:24:53.817Z,10.01
2019-04-25T04:25:53.280Z,9.98
2019-04-25T04:27:03.077Z,9.99
2019-04-25T04:27:53.780Z,9.96
2019-04-25T04:28:53.314Z,9.95
2019-04-25T04:29:52.337Z,10.02
2019-04-25T04:30:53.947Z,9.95
2019-04-25T04:31:52.888Z,9.99
2019-04-25T04:32:53.578Z,9.93
2019-04-25T04:33:53.129Z,9.96
2019-04-25T04:34:53.683Z,10.01
2019-04-25T04:35:51.842Z,9.99
2019-04-25T04:36:51.746Z,10.01
2019-04-25T04:37:51.728Z,9.98
2019-04-25T04:38:51.604Z,10.01
2019-04-25T04:39:51.506Z,10.09
2019-04-25T04:40:51.467Z,10.07
2019-04-25T04:41:51.327Z,10.10
2019-04-25T04:42:51.252Z,10.11
2019-04-25T04:43:51.254Z,10.17
2019-04-25T04:44:51.082Z,10.24
2019-04-25T04:45:51.009Z,10.20
2019-04-25T04:46:50.967Z,10.39
2019-04-25T04:47:50.843Z,10.26
2019-04-25T04:48:50.745Z,10.28
2019-04-25T04:49:50.681Z,10.28
2019-04-25T04:50:50.600Z,10.36
2019-04-25T04:51:50.495Z,10.39
2019-04-25T04:52:50.495Z,10.35
2019-04-25T04:53:50.355Z,10.43
2019-04-25T04:55:02.907Z,10.44
2019-04-25T04:55:50.240Z,10.47
2019-04-25T04:56:50.074Z,10.52
2019-04-25T04:57:50.021Z,10.57
2019-04-25T04:58:49.908Z,10.54
2019-04-25T04:59:49.829Z,10.57
2019-04-25T05:00:49.870Z,10.69
2019-04-25T05:01:49.662Z,10.60
2019-04-25T05:02:49.575Z,10.73
2019-04-25T05:03:49.625Z,10.72
2019-04-25T05:04:49.422Z,10.86
2019-04-25T05:05:49.338Z,10.87
2019-04-25T05:06:49.441Z,10.90
2019-04-25T05:07:49.161Z,10.94
2019-04-25T05:08:49.080Z,10.93
2019-04-25T05:09:49.054Z,11.01
2019-04-25T05:10:48.936Z,11.11
2019-04-25T05:11:48.885Z,11.19
2019-04-25T05:12:48.750Z,11.20
2019-04-25T05:13:48.674Z,11.21
2019-04-25T05:14:48.577Z,11.20
2019-04-25T05:15:48.547Z,11.24
2019-04-25T05:16:49.592Z,11.33
2019-04-25T05:17:48.492Z,11.27
2019-04-25T05:18:48.255Z,11.21
2019-04-25T05:19:48.189Z,11.27
2019-04-25T05:20:48.137Z,11.28
2019-04-25T05:21:47.998Z,11.24
2019-04-25T05:22:47.917Z,11.30
2019-04-25T05:23:47.930Z,11.26
2019-04-25T05:24:48.714Z,11.24
2019-04-25T05:25:47.668Z,11.28
2019-04-25T05:26:47.778Z,11.26
2019-04-25T05:27:59.657Z,11.17
2019-04-25T05:28:47.421Z,11.30
2019-04-25T05:29:47.576Z,11.36
2019-04-25T05:30:49.083Z,11.45
2019-04-25T05:31:47.220Z,11.54
2019-04-25T05:32:47.281Z,11.64
2019-04-25T05:33:47.013Z,11.69
2019-04-25T05:34:49.262Z,11.81
2019-04-25T05:35:47.007Z,12.00
2019-04-25T05:36:46.772Z,12.23
2019-04-25T05:37:46.824Z,12.29
2019-04-25T05:38:46.597Z,12.51
2019-04-25T05:39:46.523Z,12.61
2019-04-25T05:40:46.595Z,12.63
2019-04-25T05:41:47.974Z,12.56
2019-04-25T05:42:46.259Z,12.59
2019-04-25T05:43:46.246Z,12.59
2019-04-25T05:44:46.107Z,12.54
2019-04-25T05:45:46.018Z,12.58
2019-04-25T05:46:46.094Z,12.61
2019-04-25T05:47:45.857Z,12.56
2019-04-25T05:48:45.777Z,12.62
2019-04-25T05:49:45.779Z,12.58
2019-04-25T05:50:45.615Z,12.59
2019-04-25T05:51:45.663Z,12.54
2019-04-25T05:52:45.961Z,12.49
2019-04-25T05:53:47.134Z,12.54
2019-04-25T05:54:45.282Z,12.54
2019-04-25T05:55:45.260Z,12.62
2019-04-25T05:56:45.135Z,12.62
2019-04-25T05:57:49.905Z,12.58
2019-04-25T05:58:45.076Z,12.67
2019-04-25T05:59:44.876Z,12.87
2019-04-25T06:00:44.801Z,13.14
2019-04-25T06:01:44.921Z,13.50
2019-04-25T06:02:46.200Z,13.54
2019-04-25T06:03:44.552Z,13.80
2019-04-25T06:04:44.509Z,13.94
2019-04-25T06:05:44.388Z,13.91
2019-04-25T06:06:44.670Z,13.99
2019-04-25T06:07:44.316Z,14.17
2019-04-25T06:08:44.226Z,14.30
2019-04-25T06:09:44.353Z,14.26
2019-04-25T06:10:45.233Z,14.39
2019-04-25T06:11:43.920Z,14.23
2019-04-25T06:12:43.824Z,14.23
2019-04-25T06:13:43.789Z,14.36
2019-04-25T06:14:43.662Z,14.48
2019-04-25T06:15:43.583Z,14.66
2019-04-25T06:16:43.721Z,14.60
2019-04-25T06:17:43.544Z,14.38
2019-04-25T06:18:43.979Z,14.23
2019-04-25T06:19:43.597Z,14.30
2019-04-25T06:20:44.293Z,14.27
2019-04-25T06:21:43.499Z,14.24
2019-04-25T06:22:43.556Z,14.27
2019-04-25T06:23:44.351Z,14.30
2019-04-25T06:24:44.312Z,14.21
2019-04-25T06:25:43.913Z,14.12
2019-04-25T06:26:43.327Z,14.21
2019-04-25T06:27:43.620Z,14.20
2019-04-25T06:28:51.255Z,14.08
2019-04-25T06:29:43.196Z,14.09
2019-04-25T06:30:44.212Z,14.02
2019-04-25T06:31:43.917Z,14.04
2019-04-25T06:32:43.703Z,13.94
2019-04-25T06:33:43.409Z,13.99
2019-04-25T06:34:42.059Z,13.98
2019-04-25T06:35:41.995Z,13.99
2019-04-25T06:36:42.081Z,13.90
2019-04-25T06:37:41.827Z,13.99
2019-04-25T06:38:41.741Z,13.88
2019-04-25T06:39:41.862Z,13.94
2019-04-25T06:40:41.580Z,13.94
2019-04-25T06:41:41.512Z,13.91
2019-04-25T06:42:41.476Z,13.88
2019-04-25T06:43:41.339Z,13.98
2019-04-25T06:44:41.296Z,13.90
2019-04-25T06:45:41.290Z,13.90
2019-04-25T06:46:41.110Z,13.94
2019-04-25T06:47:41.023Z,13.86
2019-04-25T06:48:40.953Z,13.93
2019-04-25T06:49:40.910Z,13.94
2019-04-25T06:50:40.775Z,13.98
2019-04-25T06:51:40.717Z,13.96
2019-04-25T06:52:40.724Z,14.06
2019-04-25T06:53:40.552Z,13.96
2019-04-25T06:54:40.534Z,14.06
2019-04-25T06:55:40.377Z,14.05
2019-04-25T06:56:40.313Z,14.17
2019-04-25T06:57:40.346Z,14.23
2019-04-25T06:58:40.154Z,14.21
2019-04-25T06:59:41.572Z,14.29
2019-04-25T07:00:42.579Z,14.34
2019-04-25T07:01:39.908Z,14.39
2019-04-25T07:02:39.811Z,14.57
2019-04-25T07:03:39.772Z,14.60
2019-04-25T07:04:39.650Z,14.71
2019-04-25T07:05:40.680Z,14.85
2019-04-25T07:06:39.617Z,14.95
2019-04-25T07:07:39.414Z,15.12
2019-04-25T07:08:39.326Z,15.27
2019-04-25T07:09:39.449Z,15.34
2019-04-25T07:10:39.170Z,15.25
2019-04-25T07:11:39.101Z,15.01
2019-04-25T07:12:39.082Z,15.12
2019-04-25T07:13:39.004Z,15.40
2019-04-25T07:14:38.874Z,15.55
2019-04-25T07:15:38.773Z,15.68
2019-04-25T07:16:38.701Z,15.64
2019-04-25T07:17:38.781Z,15.76
2019-04-25T07:18:38.533Z,15.71
2019-04-25T07:19:38.448Z,15.85
2019-04-25T07:20:38.424Z,15.95
2019-04-25T07:21:38.311Z,16.06
2019-04-25T07:22:38.251Z,16.08
2019-04-25T07:23:39.037Z,15.84
2019-04-25T07:24:38.051Z,15.74
2019-04-25T07:25:37.974Z,15.48
2019-04-25T07:26:39.754Z,15.37
2019-04-25T07:27:37.812Z,15.40
2019-04-25T07:28:37.732Z,15.44
2019-04-25T07:29:37.691Z,15.44
2019-04-25T07:30:48.421Z,15.51
2019-04-25T07:31:37.519Z,15.46
2019-04-25T07:32:37.505Z,15.53
2019-04-25T07:33:37.338Z,15.44
2019-04-25T07:34:37.262Z,15.46
2019-04-25T07:35:37.296Z,15.58
2019-04-25T07:36:37.333Z,15.68
2019-04-25T07:37:39.065Z,15.70
2019-04-25T07:38:37.021Z,15.77
2019-04-25T07:39:36.861Z,15.71
2019-04-25T07:40:36.784Z,15.71
2019-04-25T07:41:38.145Z,15.66
2019-04-25T07:42:36.619Z,15.73
2019-04-25T07:43:38.578Z,15.64
2019-04-25T07:44:49.312Z,15.74
2019-04-25T07:45:36.408Z,15.76
2019-04-25T07:46:39.362Z,15.67
2019-04-25T07:47:36.534Z,15.74
2019-04-25T07:48:37.149Z,15.80
2019-04-25T07:49:36.065Z,15.91
2019-04-25T07:50:36.717Z,15.89
2019-04-25T07:51:36.717Z,15.81
2019-04-25T07:52:35.883Z,15.99
2019-04-25T07:53:36.125Z,16.06
2019-04-25T07:54:36.521Z,16.07
2019-04-25T07:55:36.328Z,15.93
2019-04-25T07:56:36.502Z,15.93
2019-04-25T07:57:35.906Z,15.96
2019-04-25T07:58:48.073Z,16.13
2019-04-25T07:59:36.309Z,16.55
2019-04-25T08:00:36.212Z,16.87
2019-04-25T08:01:37.328Z,16.88
2019-04-25T08:02:35.082Z,16.87
2019-04-25T08:03:35.287Z,17.15
2019-04-25T08:04:36.772Z,17.38
2019-04-25T08:05:35.667Z,17.58
2019-04-25T08:06:35.713Z,17.65
2019-04-25T08:07:35.295Z,17.74
2019-04-25T08:08:34.973Z,17.66
2019-04-25T08:09:35.724Z,17.70
2019-04-25T08:10:34.681Z,17.70
2019-04-25T08:11:35.087Z,17.68
2019-04-25T08:12:35.468Z,17.71
2019-04-25T08:13:35.087Z,17.87
2019-04-25T08:14:35.061Z,17.83
2019-04-25T08:15:34.983Z,18.11
2019-04-25T08:16:34.754Z,18.41
2019-04-25T08:17:35.870Z,18.62
2019-04-25T08:18:35.106Z,18.62
2019-04-25T08:19:34.679Z,18.66
2019-04-25T08:20:34.688Z,18.64
2019-04-25T08:21:34.394Z,18.51
2019-04-25T08:22:35.596Z,18.17
2019-04-25T08:23:36.694Z,17.91
2019-04-25T08:24:34.895Z,17.73
2019-04-25T08:25:36.241Z,17.81
2019-04-25T08:26:34.980Z,17.71
2019-04-25T08:27:34.338Z,17.58
2019-04-25T08:28:34.456Z,17.53
2019-04-25T08:29:34.736Z,17.53
2019-04-25T08:30:35.188Z,17.63
2019-04-25T08:31:34.772Z,17.71
2019-04-25T08:32:35.083Z,17.46
2019-04-25T08:33:34.581Z,17.47
2019-04-25T08:34:34.403Z,17.46
2019-04-25T08:35:34.180Z,17.53
2019-04-25T08:36:33.813Z,17.57
2019-04-25T08:37:34.125Z,17.57
2019-04-25T08:38:34.653Z,17.73
2019-04-25T08:39:34.403Z,17.68
2019-04-25T08:40:33.135Z,17.62
2019-04-25T08:41:34.164Z,17.63
2019-04-25T08:42:32.818Z,17.43
2019-04-25T08:43:32.559Z,17.40
2019-04-25T08:44:33.066Z,17.33
2019-04-25T08:45:31.688Z,17.30
2019-04-25T08:46:33.888Z,17.28
2019-04-25T08:47:32.642Z,17.28
2019-04-25T08:48:31.973Z,17.27
2019-04-25T08:49:31.562Z,17.22
2019-04-25T08:50:33.958Z,17.33
2019-04-25T08:51:32.022Z,17.25
2019-04-25T08:52:31.864Z,17.33
2019-04-25T08:53:31.446Z,17.17
2019-04-25T08:54:31.219Z,16.99
2019-04-25T08:55:31.506Z,17.10
2019-04-25T08:56:31.874Z,17.15
2019-04-25T08:57:31.910Z,17.33
2019-04-25T08:58:31.293Z,17.30
2019-04-25T08:59:36.000Z,17.35
2019-04-25T09:00:31.682Z,17.51
2019-04-25T09:01:32.258Z,17.70
2019-04-25T09:02:30.382Z,17.89
2019-04-25T09:03:30.428Z,18.01
2019-04-25T09:04:30.177Z,18.01
2019-04-25T09:05:30.264Z,18.17
2019-04-25T09:06:30.135Z,18.23
2019-04-25T09:07:29.945Z,18.35
2019-04-25T09:08:30.051Z,18.59
2019-04-25T09:09:29.782Z,18.74
2019-04-25T09:10:29.705Z,18.96
2019-04-25T09:11:32.307Z,19.24
2019-04-25T09:12:29.562Z,19.53
2019-04-25T09:13:38.308Z,19.86
2019-04-25T09:14:29.392Z,19.79
2019-04-25T09:15:29.484Z,20.19
2019-04-25T09:16:29.249Z,20.38
2019-04-25T09:17:29.349Z,20.44
2019-04-25T09:18:29.087Z,20.57
2019-04-25T09:19:29.309Z,20.87
2019-04-25T09:20:28.933Z,21.26
2019-04-25T09:21:28.858Z,21.53
2019-04-25T09:22:28.806Z,21.75
2019-04-25T09:23:28.924Z,22.11
2019-04-25T09:24:28.640Z,22.11
2019-04-25T09:25:28.569Z,21.99
2019-04-25T09:26:28.500Z,21.66
2019-04-25T09:27:28.588Z,21.68
2019-04-25T09:28:28.358Z,21.82
2019-04-25T09:29:28.278Z,21.74
2019-04-25T09:30:28.362Z,21.56
2019-04-25T09:31:28.140Z,21.53
2019-04-25T09:32:28.084Z,21.59
2019-04-25T09:33:28.075Z,21.34
2019-04-25T09:34:27.933Z,21.21
2019-04-25T09:35:27.882Z,21.00
2019-04-25T09:36:27.785Z,20.57
2019-04-25T09:37:27.930Z,20.42
2019-04-25T09:38:27.642Z,20.30
2019-04-25T09:39:27.910Z,20.23
2019-04-25T09:40:27.539Z,19.97
2019-04-25T09:41:27.512Z,19.52
2019-04-25T09:42:27.369Z,19.55
2019-04-25T09:43:27.286Z,19.46
2019-04-25T09:44:27.330Z,19.70
2019-04-25T09:45:27.134Z,20.08
2019-04-25T09:46:27.061Z,19.92
2019-04-25T09:47:27.183Z,19.94
2019-04-25T09:48:26.921Z,19.82
2019-04-25T09:49:26.842Z,19.68
2019-04-25T09:50:26.962Z,19.38
2019-04-25T09:51:26.692Z,19.32
2019-04-25T09:52:26.632Z,19.32
2019-04-25T09:53:26.573Z,19.53
2019-04-25T09:54:26.497Z,19.38
2019-04-25T09:55:26.393Z,19.55
2019-04-25T09:56:33.971Z,19.53
2019-04-25T09:57:26.260Z,19.57
2019-04-25T09:58:26.183Z,19.61
2019-04-25T09:59:28.083Z,19.60
2019-04-25T10:00:26.196Z,19.67
2019-04-25T10:01:25.943Z,19.70
2019-04-25T10:02:26.035Z,19.52
2019-04-25T10:03:25.782Z,19.61
2019-04-25T10:04:25.828Z,19.42
2019-04-25T10:05:25.629Z,19.60
2019-04-25T10:06:25.637Z,19.62
2019-04-25T10:07:25.489Z,19.53
2019-04-25T10:08:25.430Z,19.61
2019-04-25T10:09:25.328Z,19.49
2019-04-25T10:10:25.442Z,19.62
2019-04-25T10:11:25.170Z,19.57
2019-04-25T10:12:25.106Z,19.60
2019-04-25T10:13:25.195Z,19.75
2019-04-25T10:14:25.061Z,19.62
2019-04-25T10:15:24.862Z,19.64
2019-04-25T10:16:24.783Z,19.57
2019-04-25T10:17:24.716Z,19.52
2019-04-25T10:18:24.698Z,19.71
2019-04-25T10:19:24.553Z,19.60
2019-04-25T10:20:25.531Z,19.46
2019-04-25T10:21:24.398Z,19.46
2019-04-25T10:22:24.553Z,19.46
2019-04-25T10:23:24.244Z,19.49
2019-04-25T10:24:24.330Z,19.45
2019-04-25T10:25:24.093Z,19.31
2019-04-25T10:26:24.121Z,19.25
2019-04-25T10:27:24.252Z,19.24
2019-04-25T10:28:23.948Z,19.24
2019-04-25T10:29:23.777Z,19.13
2019-04-25T10:30:25.929Z,19.35
2019-04-25T10:31:23.817Z,19.34
2019-04-25T10:32:23.813Z,19.45
2019-04-25T10:33:24.271Z,19.58
2019-04-25T10:34:24.177Z,19.61
2019-04-25T10:35:23.879Z,19.65
2019-04-25T10:36:24.589Z,19.64
2019-04-25T10:37:23.168Z,19.55
2019-04-25T10:38:24.180Z,19.60
2019-04-25T10:39:23.048Z,19.67
2019-04-25T10:40:23.442Z,19.75
2019-04-25T10:41:24.371Z,19.86
2019-04-25T10:42:23.906Z,19.98
2019-04-25T10:43:23.937Z,20.00
2019-04-25T10:44:24.382Z,20.00
2019-04-25T10:45:25.461Z,20.12
2019-04-25T10:46:24.370Z,20.19
2019-04-25T10:47:22.397Z,20.42
2019-04-25T10:48:24.066Z,20.50
2019-04-25T10:49:23.546Z,20.57
2019-04-25T10:50:24.306Z,20.58
2019-04-25T10:51:23.859Z,20.64
2019-04-25T10:52:23.331Z,20.73
2019-04-25T10:53:23.249Z,20.85
2019-04-25T10:54:21.840Z,20.79
2019-04-25T10:55:23.331Z,20.81
2019-04-25T10:56:29.673Z,20.53
2019-04-25T10:57:21.609Z,20.51
2019-04-25T10:58:21.525Z,20.40
2019-04-25T10:59:21.457Z,20.60
2019-04-25T11:00:21.372Z,20.69
2019-04-25T11:01:21.311Z,20.61
2019-04-25T11:02:21.273Z,20.69
2019-04-25T11:03:24.185Z,20.71
2019-04-25T11:04:21.059Z,20.79
2019-04-25T11:05:21.028Z,20.76
2019-04-25T11:06:20.904Z,20.63
2019-04-25T11:07:20.845Z,20.71
2019-04-25T11:08:20.755Z,20.66
2019-04-25T11:09:20.670Z,20.76
2019-04-25T11:10:20.596Z,20.68
2019-04-25T11:11:20.524Z,20.56
2019-04-25T11:12:20.452Z,20.56
2019-04-25T11:13:20.363Z,20.60
2019-04-25T11:14:20.338Z,20.78
2019-04-25T11:15:20.380Z,20.79
2019-04-25T11:16:20.132Z,20.85
2019-04-25T11:17:20.188Z,20.93
2019-04-25T11:18:19.976Z,20.93
2019-04-25T11:19:19.909Z,20.96
2019-04-25T11:20:19.968Z,21.24
2019-04-25T11:21:19.750Z,21.15
2019-04-25T11:22:19.693Z,21.28
2019-04-25T11:23:19.783Z,21.56
2019-04-25T11:24:19.516Z,21.48
2019-04-25T11:25:19.593Z,21.56
2019-04-25T11:26:19.368Z,21.67
2019-04-25T11:27:19.372Z,21.67
2019-04-25T11:28:19.211Z,21.86
2019-04-25T11:29:19.200Z,21.89
2019-04-25T11:30:19.059Z,21.93
2019-04-25T11:31:19.067Z,21.90
2019-04-25T11:32:19.974Z,21.94
2019-04-25T11:33:18.870Z,22.02
2019-04-25T11:34:18.753Z,22.15
2019-04-25T11:35:19.739Z,22.35
2019-04-25T11:36:18.596Z,22.54
2019-04-25T11:37:18.537Z,22.61
2019-04-25T11:38:18.704Z,22.97
2019-04-25T11:39:18.370Z,23.38
2019-04-25T11:40:18.302Z,23.57
2019-04-25T11:41:19.236Z,23.72
2019-04-25T11:42:18.167Z,23.78
2019-04-25T11:43:18.080Z,23.89
2019-04-25T11:44:18.008Z,24.02
2019-04-25T11:45:17.933Z,24.12
2019-04-25T11:46:17.864Z,23.77
2019-04-25T11:47:17.818Z,23.56
2019-04-25T11:48:17.716Z,23.60
2019-04-25T11:49:17.651Z,23.86
2019-04-25T11:50:17.581Z,23.93
2019-04-25T11:51:17.505Z,24.00
2019-04-25T11:52:26.864Z,23.97
2019-04-25T11:53:20.053Z,23.94
2019-04-25T11:54:17.289Z,23.79
2019-04-25T11:55:17.234Z,23.87
2019-04-25T11:56:17.186Z,23.87
2019-04-25T11:57:17.113Z,23.89
2019-04-25T11:58:17.021Z,23.96
2019-04-25T11:59:16.950Z,24.00
2019-04-25T12:00:22.173Z,23.93
2019-04-25T12:01:16.817Z,23.56
2019-04-25T12:02:16.757Z,23.59
2019-04-25T12:03:16.675Z,23.68
2019-04-25T12:04:16.613Z,23.78
2019-04-25T12:05:16.544Z,23.60
2019-04-25T12:06:16.467Z,23.82
2019-04-25T12:07:16.432Z,23.79
2019-04-25T12:08:16.334Z,24.02
2019-04-25T12:09:16.267Z,24.00
2019-04-25T12:10:16.199Z,24.15
2019-04-25T12:11:16.172Z,24.26
2019-04-25T12:12:16.067Z,24.59
2019-04-25T12:13:16.013Z,24.31
2019-04-25T12:14:15.924Z,24.39
2019-04-25T12:15:15.859Z,24.63
2019-04-25T12:16:15.780Z,24.52
2019-04-25T12:17:15.735Z,24.41
2019-04-25T12:18:15.653Z,24.55
2019-04-25T12:19:15.579Z,24.82
2019-04-25T12:20:15.523Z,24.86
2019-04-25T12:21:15.499Z,24.59
2019-04-25T12:22:15.394Z,24.37
2019-04-25T12:23:15.308Z,24.36
2019-04-25T12:24:15.250Z,24.51
2019-04-25T12:25:15.172Z,24.67
2019-04-25T12:26:15.109Z,24.60
2019-04-25T12:27:15.049Z,24.68
2019-04-25T12:28:14.985Z,24.83
2019-04-25T12:29:14.909Z,25.04
2019-04-25T12:30:14.843Z,25.02
2019-04-25T12:31:14.849Z,25.04
2019-04-25T12:32:14.715Z,25.02
2019-04-25T12:33:21.210Z,25.08
2019-04-25T12:34:14.562Z,25.34
2019-04-25T12:35:14.498Z,25.49
2019-04-25T12:36:14.436Z,25.60
2019-04-25T12:37:14.382Z,25.60
2019-04-25T12:38:14.302Z,25.42
2019-04-25T12:39:14.239Z,25.34
2019-04-25T12:40:14.231Z,25.08
2019-04-25T12:41:14.099Z,25.31
2019-04-25T12:42:14.482Z,25.30
2019-04-25T12:43:13.977Z,25.01
2019-04-25T12:44:13.891Z,25.09
2019-04-25T12:45:14.193Z,24.94
2019-04-25T12:46:13.760Z,25.17
2019-04-25T12:47:13.691Z,25.22
2019-04-25T12:48:14.499Z,25.11
2019-04-25T12:49:15.240Z,25.29
2019-04-25T12:50:14.357Z,25.51
2019-04-25T12:51:13.557Z,25.74
2019-04-25T12:52:13.373Z,25.83
2019-04-25T12:53:13.907Z,25.67
2019-04-25T12:54:13.826Z,25.93
2019-04-25T12:55:13.925Z,25.89
2019-04-25T12:56:13.129Z,25.81